Time;durP1;ratioP1;P1;durP2;ratioP2;P2;SDS_P1;SDS_P2;PMS_P1;PMS_P2;Temp;Humidity;BMP_temperature;BMP_pressure;BME280_temperature;BME280_humidity;BME280_pressure;Samples;Min_cycle;Max_cycle;Signal;HPM_P1;HPM_P2
2024/04/15 00:01:34;;;;;;;;;;;21.70;46.60;;;;;;5421937;26;1635;-79
2024/04/15 00:03:59;;;;;;;;;;;21.70;46.60;;;;;;5434560;26;3364;-79
2024/04/15 00:06:27;;;;;;;;;;;21.70;46.60;;;;;;5419664;26;1654;-79
2024/04/15 00:08:53;;;;;;;;;;;21.70;46.60;;;;;;5405325;26;1829;-79
2024/04/15 00:11:21;;;;;;;;;;;21.70;46.60;;;;;;5419985;26;3366;-79
2024/04/15 00:13:46;;;;;;;;;;;21.70;46.60;;;;;;5420713;26;2997;-79
2024/04/15 00:16:14;;;;;;;;;;;21.70;46.60;;;;;;5419413;26;1703;-78
2024/04/15 00:18:40;;;;;;;;;;;21.70;46.60;;;;;;5419873;26;1042;-78
2024/04/15 00:21:10;;;;;;;;;;;21.70;46.60;;;;;;5420005;26;1598;-77
2024/04/15 00:23:35;;;;;;;;;;;21.70;46.70;;;;;;5419692;26;1184;-78
2024/04/15 00:26:03;;;;;;;;;;;21.60;46.60;;;;;;5417521;26;1507;-78
2024/04/15 00:28:29;;;;;;;;;;;21.60;46.60;;;;;;5415151;26;1883;-78
2024/04/15 00:30:57;;;;;;;;;;;21.60;46.60;;;;;;5420470;26;1138;-79
2024/04/15 00:33:22;;;;;;;;;;;21.60;46.60;;;;;;5406925;26;1421;-78
2024/04/15 00:35:50;;;;;;;;;;;21.60;46.60;;;;;;5416755;26;1122;-78
2024/04/15 00:38:16;;;;;;;;;;;21.60;46.60;;;;;;5419044;26;2128;-78
2024/04/15 00:40:44;;;;;;;;;;;21.60;46.60;;;;;;5419700;26;1547;-78
2024/04/15 00:43:09;;;;;;;;;;;21.60;46.60;;;;;;5419957;26;1215;-78
2024/04/15 00:45:37;;;;;;;;;;;21.60;46.70;;;;;;5418573;26;1614;-78
2024/04/15 00:48:03;;;;;;;;;;;21.60;46.80;;;;;;5411841;26;1873;-78
2024/04/15 00:50:31;;;;;;;;;;;21.60;46.70;;;;;;5420278;26;2019;-78
2024/04/15 00:52:56;;;;;;;;;;;21.60;46.70;;;;;;5418828;26;1532;-78
2024/04/15 00:55:25;;;;;;;;;;;21.60;46.70;;;;;;5421209;26;1635;-79
2024/04/15 00:57:50;;;;;;;;;;;21.60;46.70;;;;;;5422822;26;2119;-79
2024/04/15 01:00:18;;;;;;;;;;;21.60;47.40;;;;;;5423204;26;2090;-79
2024/04/15 01:02:44;;;;;;;;;;;21.60;46.70;;;;;;5438918;26;1424;-79
2024/04/15 01:05:12;;;;;;;;;;;21.60;46.80;;;;;;5433940;26;1139;-79
2024/04/15 01:07:37;;;;;;;;;;;21.50;46.70;;;;;;5421777;26;1862;-79
2024/04/15 01:10:05;;;;;;;;;;;21.60;46.80;;;;;;5422178;26;1722;-79
2024/04/15 01:12:31;;;;;;;;;;;21.50;46.20;;;;;;5420168;26;2883;-79
2024/04/15 01:14:59;;;;;;;;;;;21.50;46.70;;;;;;5421270;26;2965;-79
2024/04/15 01:17:24;;;;;;;;;;;21.50;46.70;;;;;;5421303;26;1553;-79
2024/04/15 01:19:52;;;;;;;;;;;21.50;46.80;;;;;;5422058;26;953;-79
2024/04/15 01:22:18;;;;;;;;;;;21.50;46.80;;;;;;5421740;26;1175;-79
2024/04/15 01:24:46;;;;;;;;;;;21.50;46.90;;;;;;5422817;26;1152;-79
2024/04/15 01:27:11;;;;;;;;;;;21.50;46.90;;;;;;5422362;26;1870;-79
2024/04/15 01:29:39;;;;;;;;;;;21.50;46.90;;;;;;5420935;26;1812;-79
2024/04/15 01:32:05;;;;;;;;;;;21.50;46.90;;;;;;5422320;26;1144;-79
2024/04/15 01:34:33;;;;;;;;;;;21.50;46.50;;;;;;5420124;26;1573;-79
2024/04/15 01:36:58;;;;;;;;;;;21.50;47.00;;;;;;5407416;26;1105;-79
2024/04/15 01:39:26;;;;;;;;;;;21.50;47.00;;;;;;5421032;26;1467;-79
2024/04/15 01:41:52;;;;;;;;;;;21.50;47.00;;;;;;5421632;26;1248;-79
2024/04/15 01:44:20;;;;;;;;;;;21.50;47.00;;;;;;5419816;26;1594;-79
2024/04/15 01:46:45;;;;;;;;;;;21.50;47.00;;;;;;5420662;26;1528;-79
2024/04/15 01:49:13;;;;;;;;;;;21.40;47.00;;;;;;5408784;26;1894;-79
2024/04/15 01:51:39;;;;;;;;;;;21.40;47.00;;;;;;5422565;26;1183;-79
2024/04/15 01:54:07;;;;;;;;;;;21.50;47.10;;;;;;5420653;26;1469;-79
2024/04/15 01:56:32;;;;;;;;;;;21.50;47.10;;;;;;5421994;26;1948;-79
2024/04/15 01:59:00;;;;;;;;;;;21.40;47.00;;;;;;5422245;26;1079;-79
2024/04/15 02:01:26;;;;;;;;;;;21.50;47.20;;;;;;5421628;26;1183;-79
2024/04/15 02:03:56;;;;;;;;;;;21.40;47.10;;;;;;5418094;26;1488;-79
2024/04/15 02:06:22;;;;;;;;;;;21.40;47.20;;;;;;5419761;26;1577;-79
2024/04/15 02:08:50;;;;;;;;;;;21.40;47.10;;;;;;5422539;26;1887;-79
2024/04/15 02:11:15;;;;;;;;;;;21.40;47.10;;;;;;5413559;26;2106;-79
2024/04/15 02:13:43;;;;;;;;;;;21.40;46.60;;;;;;5418202;26;3158;-79
2024/04/15 02:16:09;;;;;;;;;;;21.40;47.20;;;;;;5420256;26;2916;-79
2024/04/15 02:18:37;;;;;;;;;;;21.40;47.20;;;;;;5420896;26;1362;-79
2024/04/15 02:21:02;;;;;;;;;;;21.40;47.20;;;;;;5420205;26;1598;-79
2024/04/15 02:23:30;;;;;;;;;;;21.40;47.20;;;;;;5420646;26;1582;-79
2024/04/15 02:25:56;;;;;;;;;;;21.40;47.20;;;;;;5420609;26;1433;-79
2024/04/15 02:28:24;;;;;;;;;;;21.40;47.20;;;;;;5410320;26;1841;-79
2024/04/15 02:30:49;;;;;;;;;;;21.40;47.30;;;;;;5418351;26;1797;-79
2024/04/15 02:33:17;;;;;;;;;;;21.40;47.30;;;;;;5404369;26;1834;-79
2024/04/15 02:35:43;;;;;;;;;;;21.40;47.30;;;;;;5418159;26;1514;-79
2024/04/15 02:38:11;;;;;;;;;;;21.40;47.30;;;;;;5417571;26;1879;-79
2024/04/15 02:40:36;;;;;;;;;;;21.40;47.40;;;;;;5418448;26;1478;-79
2024/04/15 02:43:04;;;;;;;;;;;21.40;47.40;;;;;;5420747;26;1844;-79
2024/04/15 02:45:30;;;;;;;;;;;21.40;47.40;;;;;;5420678;26;1566;-79
2024/04/15 02:47:58;;;;;;;;;;;21.40;47.50;;;;;;5419966;26;1873;-79
2024/04/15 02:50:23;;;;;;;;;;;21.40;47.50;;;;;;5405537;26;1582;-79
2024/04/15 02:52:51;;;;;;;;;;;21.30;47.40;;;;;;5420370;26;1234;-79
2024/04/15 02:55:17;;;;;;;;;;;21.30;47.40;;;;;;5421153;26;1726;-79
2024/04/15 02:57:45;;;;;;;;;;;21.30;47.50;;;;;;5421148;26;1308;-80
2024/04/15 03:00:10;;;;;;;;;;;21.30;47.50;;;;;;5417344;26;1830;-79
2024/04/15 03:02:38;;;;;;;;;;;21.30;47.50;;;;;;5432288;26;1591;-79
2024/04/15 03:05:04;;;;;;;;;;;21.30;47.50;;;;;;5420686;26;963;-79
2024/04/15 03:07:32;;;;;;;;;;;21.40;47.70;;;;;;5420173;26;1887;-79
2024/04/15 03:09:58;;;;;;;;;;;21.30;47.60;;;;;;5418850;26;1788;-79
2024/04/15 03:12:26;;;;;;;;;;;21.30;47.60;;;;;;5420155;26;1398;-79
2024/04/15 03:14:51;;;;;;;;;;;21.30;47.60;;;;;;5417943;26;3178;-79
2024/04/15 03:17:19;;;;;;;;;;;21.30;47.60;;;;;;5419048;26;1623;-79
2024/04/15 03:19:45;;;;;;;;;;;21.30;47.60;;;;;;5422271;26;1062;-79
2024/04/15 03:22:13;;;;;;;;;;;21.30;47.60;;;;;;5412751;26;1501;-79
2024/04/15 03:24:38;;;;;;;;;;;21.30;47.60;;;;;;5419230;26;1512;-79
2024/04/15 03:27:06;;;;;;;;;;;21.30;47.60;;;;;;5419841;26;1705;-78
2024/04/15 03:29:32;;;;;;;;;;;21.30;47.60;;;;;;5421052;26;1884;-79
2024/04/15 03:32:00;;;;;;;;;;;21.30;47.60;;;;;;5408522;26;1582;-79
2024/04/15 03:34:25;;;;;;;;;;;21.30;47.60;;;;;;5418184;26;1693;-79
2024/04/15 03:36:54;;;;;;;;;;;21.30;47.60;;;;;;5417074;26;1532;-79
2024/04/15 03:39:22;;;;;;;;;;;21.30;47.60;;;;;;5417657;26;2401;-79
2024/04/15 03:41:50;;;;;;;;;;;21.30;47.60;;;;;;5417893;26;1164;-79
2024/04/15 03:44:18;;;;;;;;;;;21.30;47.60;;;;;;5419057;26;1641;-79
2024/04/15 03:46:43;;;;;;;;;;;21.30;47.50;;;;;;5424353;26;1190;-79
2024/04/15 03:49:11;;;;;;;;;;;21.30;47.50;;;;;;5422300;26;2788;-79
2024/04/15 03:51:37;;;;;;;;;;;21.30;47.50;;;;;;5421803;26;1236;-79
2024/04/15 03:54:05;;;;;;;;;;;21.30;47.40;;;;;;5422118;26;1887;-78
2024/04/15 03:56:30;;;;;;;;;;;21.30;47.50;;;;;;5423260;26;2781;-79
2024/04/15 03:58:58;;;;;;;;;;;21.30;47.50;;;;;;5421199;26;1538;-79
2024/04/15 04:01:24;;;;;;;;;;;21.30;47.60;;;;;;5421445;26;1174;-80
2024/04/15 04:03:52;;;;;;;;;;;21.30;47.60;;;;;;5436338;26;1214;-79
2024/04/15 04:06:18;;;;;;;;;;;21.30;47.60;;;;;;5420046;26;3007;-79
2024/04/15 04:08:46;;;;;;;;;;;21.30;47.60;;;;;;5420953;26;3032;-79
2024/04/15 04:11:12;;;;;;;;;;;21.30;47.60;;;;;;5421300;26;1410;-80
2024/04/15 04:13:40;;;;;;;;;;;21.30;47.60;;;;;;5423132;26;1274;-79
2024/04/15 04:16:05;;;;;;;;;;;21.20;47.60;;;;;;5419084;26;2968;-79
2024/04/15 04:18:33;;;;;;;;;;;21.20;47.60;;;;;;5421548;26;1641;-79
2024/04/15 04:20:59;;;;;;;;;;;21.30;47.70;;;;;;5421721;26;1581;-79
2024/04/15 04:23:27;;;;;;;;;;;21.30;47.70;;;;;;5422426;26;2657;-79
2024/04/15 04:25:52;;;;;;;;;;;21.30;47.70;;;;;;5420352;26;3317;-79
2024/04/15 04:28:20;;;;;;;;;;;21.30;47.70;;;;;;5409925;26;1837;-79
2024/04/15 04:30:46;;;;;;;;;;;21.30;47.70;;;;;;5418407;26;1778;-79
2024/04/15 04:33:14;;;;;;;;;;;21.20;47.70;;;;;;5422371;26;2384;-79
2024/04/15 04:35:39;;;;;;;;;;;21.20;47.70;;;;;;5422395;26;1975;-79
2024/04/15 04:38:08;;;;;;;;;;;21.30;47.80;;;;;;5416883;26;1571;-79
2024/04/15 04:40:36;;;;;;;;;;;21.20;47.70;;;;;;5417311;26;2046;-79
2024/04/15 04:43:01;;;;;;;;;;;21.20;47.70;;;;;;5410619;26;1701;-79
2024/04/15 04:45:29;;;;;;;;;;;21.30;47.80;;;;;;5422719;26;940;-79
2024/04/15 04:47:55;;;;;;;;;;;21.20;47.70;;;;;;5403248;26;1871;-79
2024/04/15 04:50:23;;;;;;;;;;;21.20;47.70;;;;;;5422933;26;2258;-79
2024/04/15 04:52:48;;;;;;;;;;;21.20;47.70;;;;;;5422153;26;1738;-79
2024/04/15 04:55:16;;;;;;;;;;;21.20;47.70;;;;;;5418917;26;1903;-79
2024/04/15 04:57:42;;;;;;;;;;;21.20;47.70;;;;;;5422237;26;1813;-79
2024/04/15 05:00:10;;;;;;;;;;;21.20;47.70;;;;;;5417397;26;2029;-79
2024/04/15 05:02:35;;;;;;;;;;;21.20;47.70;;;;;;5420800;26;2089;-79
2024/04/15 05:05:03;;;;;;;;;;;21.20;47.70;;;;;;5422490;26;967;-78
2024/04/15 05:07:29;;;;;;;;;;;21.20;47.70;;;;;;5421993;26;1528;-78
2024/04/15 05:09:57;;;;;;;;;;;21.20;48.00;;;;;;5419981;26;1873;-79
2024/04/15 05:12:25;;;;;;;;;;;21.20;48.20;;;;;;5415668;26;2029;-79
2024/04/15 05:14:50;;;;;;;;;;;21.30;48.20;;;;;;5417403;26;1916;-79
2024/04/15 05:17:19;;;;;;;;;;;21.30;48.40;;;;;;5415165;26;2967;-79
2024/04/15 05:19:44;;;;;;;;;;;21.20;48.30;;;;;;5419935;26;1731;-79
2024/04/15 05:22:12;;;;;;;;;;;21.20;48.30;;;;;;5417715;26;2077;-79
2024/04/15 05:24:37;;;;;;;;;;;21.30;48.80;;;;;;5414152;26;1894;-79
2024/04/15 05:27:06;;;;;;;;;;;21.30;49.30;;;;;;5421376;26;2063;-79
2024/04/15 05:29:31;;;;;;;;;;;21.30;49.30;;;;;;5419031;26;1826;-79
2024/04/15 05:31:59;;;;;;;;;;;21.30;49.30;;;;;;5417331;26;1880;-80
2024/04/15 05:34:25;;;;;;;;;;;21.30;49.20;;;;;;5409790;26;1752;-79
2024/04/15 05:36:53;;;;;;;;;;;21.30;49.40;;;;;;5420151;26;1524;-79
2024/04/15 05:39:18;;;;;;;;;;;21.30;49.40;;;;;;5406988;26;1977;-79
2024/04/15 05:41:46;;;;;;;;;;;21.30;49.20;;;;;;5416695;26;2077;-80
2024/04/15 05:44:12;;;;;;;;;;;21.30;49.20;;;;;;5420434;26;1965;-79
2024/04/15 05:46:40;;;;;;;;;;;21.30;49.20;;;;;;5421281;26;2006;-80
2024/04/15 05:49:05;;;;;;;;;;;21.30;49.20;;;;;;5420952;26;1841;-80
2024/04/15 05:51:33;;;;;;;;;;;21.30;49.20;;;;;;5420982;26;2016;-80
2024/04/15 05:53:59;;;;;;;;;;;21.30;49.20;;;;;;5413403;26;1512;-80
2024/04/15 05:56:27;;;;;;;;;;;21.30;49.30;;;;;;5410052;26;2031;-79
2024/04/15 05:58:53;;;;;;;;;;;21.30;49.30;;;;;;5396564;26;2479;-77
2024/04/15 06:01:21;;;;;;;;;;;21.30;49.20;;;;;;5404694;26;2162;-79
2024/04/15 06:03:46;;;;;;;;;;;21.30;49.30;;;;;;5410203;26;1936;-77
2024/04/15 06:06:14;;;;;;;;;;;21.30;49.30;;;;;;5412240;26;1981;-80
2024/04/15 06:08:40;;;;;;;;;;;21.30;49.20;;;;;;5413534;26;2039;-77
2024/04/15 06:11:08;;;;;;;;;;;21.30;49.20;;;;;;5410399;26;3049;-77
2024/04/15 06:13:33;;;;;;;;;;;21.30;49.80;;;;;;5413589;26;2237;-77
2024/04/15 06:16:01;;;;;;;;;;;21.70;51.00;;;;;;5406418;26;2074;-77
2024/04/15 06:18:27;;;;;;;;;;;21.30;51.40;;;;;;5413540;26;3217;-78
2024/04/15 06:20:55;;;;;;;;;;;21.30;52.20;;;;;;5412676;26;1801;-77
2024/04/15 06:23:21;;;;;;;;;;;21.30;52.70;;;;;;5402436;26;2113;-76
2024/04/15 06:25:49;;;;;;;;;;;21.30;52.40;;;;;;5415242;26;2210;-77
2024/04/15 06:28:14;;;;;;;;;;;21.30;52.00;;;;;;5415012;26;2128;-77
2024/04/15 06:30:42;;;;;;;;;;;21.30;51.50;;;;;;5411393;26;1717;-77
2024/04/15 06:33:08;;;;;;;;;;;21.30;51.20;;;;;;5398743;26;1229;-77
2024/04/15 06:35:36;;;;;;;;;;;21.30;50.80;;;;;;5399269;26;970;-77
2024/04/15 06:38:01;;;;;;;;;;;21.30;50.70;;;;;;5396779;26;1834;-77
2024/04/15 06:40:32;;;;;;;;;;;21.30;50.50;;;;;;5415492;26;1548;-78
2024/04/15 06:42:58;;;;;;;;;;;21.30;50.40;;;;;;5411743;26;1868;-77
2024/04/15 06:45:26;;;;;;;;;;;21.30;50.40;;;;;;5408888;26;2190;-77
2024/04/15 06:47:53;;;;;;;;;;;21.30;50.30;;;;;;5413704;26;1774;-77
2024/04/15 06:50:21;;;;;;;;;;;21.30;50.10;;;;;;5403680;26;1841;-77
2024/04/15 06:52:46;;;;;;;;;;;21.40;50.10;;;;;;5410033;26;1976;-77
2024/04/15 06:55:15;;;;;;;;;;;21.30;50.00;;;;;;5396300;26;1322;-77
2024/04/15 06:57:40;;;;;;;;;;;21.30;49.80;;;;;;5406745;26;2114;-77
2024/04/15 07:00:08;;;;;;;;;;;21.30;49.70;;;;;;5415272;26;1769;-77
2024/04/15 07:02:33;;;;;;;;;;;21.40;49.20;;;;;;5415223;26;1787;-78
2024/04/15 07:05:02;;;;;;;;;;;21.30;49.60;;;;;;5416018;26;1801;-77
2024/04/15 07:07:27;;;;;;;;;;;21.30;49.50;;;;;;5415558;26;1596;-77
2024/04/15 07:09:55;;;;;;;;;;;21.30;49.50;;;;;;5408584;26;1870;-77
2024/04/15 07:12:21;;;;;;;;;;;21.30;49.50;;;;;;5414982;26;1585;-77
2024/04/15 07:14:49;;;;;;;;;;;21.30;49.40;;;;;;5411960;26;2331;-77
2024/04/15 07:17:14;;;;;;;;;;;21.30;49.40;;;;;;5410331;26;2811;-78
2024/04/15 07:19:42;;;;;;;;;;;21.30;49.30;;;;;;5411301;26;3158;-78
2024/04/15 07:22:08;;;;;;;;;;;21.30;49.20;;;;;;5400076;26;1899;-77
2024/04/15 07:24:36;;;;;;;;;;;21.30;49.30;;;;;;5406967;26;2131;-77
2024/04/15 07:27:01;;;;;;;;;;;21.30;49.20;;;;;;5412955;26;1946;-77
2024/04/15 07:29:29;;;;;;;;;;;21.30;49.20;;;;;;5416824;26;1871;-78
2024/04/15 07:31:55;;;;;;;;;;;21.30;49.20;;;;;;5417287;26;1594;-78
2024/04/15 07:34:23;;;;;;;;;;;21.30;49.00;;;;;;5419187;26;2076;-77
2024/04/15 07:36:49;;;;;;;;;;;21.30;49.00;;;;;;5419734;26;1509;-78
2024/04/15 07:39:17;;;;;;;;;;;21.30;49.00;;;;;;5407290;26;1528;-77
2024/04/15 07:41:42;;;;;;;;;;;21.30;48.90;;;;;;5422279;26;1824;-77
2024/04/15 07:44:10;;;;;;;;;;;21.20;48.80;;;;;;5420989;26;1639;-76
2024/04/15 07:46:36;;;;;;;;;;;21.30;48.80;;;;;;5419525;26;1890;-77
2024/04/15 07:49:04;;;;;;;;;;;21.30;48.80;;;;;;5402692;26;1898;-78
2024/04/15 07:51:29;;;;;;;;;;;21.30;48.90;;;;;;5414330;26;1761;-77
2024/04/15 07:53:57;;;;;;;;;;;21.30;48.90;;;;;;5405147;26;1775;-77
2024/04/15 07:56:23;;;;;;;;;;;21.30;48.90;;;;;;5419709;26;2023;-77
2024/04/15 07:58:51;;;;;;;;;;;21.30;48.90;;;;;;5419889;26;1888;-77
2024/04/15 08:01:16;;;;;;;;;;;21.30;48.80;;;;;;5414589;26;2043;-78
2024/04/15 08:03:44;;;;;;;;;;;21.30;48.70;;;;;;5415450;26;2141;-76
2024/04/15 08:06:10;;;;;;;;;;;21.30;48.70;;;;;;5417268;26;1547;-77
2024/04/15 08:08:38;;;;;;;;;;;21.30;48.70;;;;;;5416148;26;1841;-76
2024/04/15 08:11:04;;;;;;;;;;;21.30;48.60;;;;;;5407175;26;2264;-78
2024/04/15 08:13:32;;;;;;;;;;;21.30;48.60;;;;;;5418716;26;1565;-78
2024/04/15 08:15:57;;;;;;;;;;;21.30;48.50;;;;;;5416728;26;1827;-78
2024/04/15 08:18:25;;;;;;;;;;;21.30;48.50;;;;;;5403223;26;3245;-77
2024/04/15 08:20:51;;;;;;;;;;;21.30;48.50;;;;;;5405343;26;2744;-77
2024/04/15 08:23:19;;;;;;;;;;;21.30;48.50;;;;;;5414222;26;2194;-76
2024/04/15 08:25:44;;;;;;;;;;;21.30;48.40;;;;;;5417147;26;1897;-77
2024/04/15 08:28:13;;;;;;;;;;;21.90;48.90;;;;;;5408521;26;1879;-76
2024/04/15 08:30:38;;;;;;;;;;;21.40;48.50;;;;;;5405720;26;2209;-78
2024/04/15 08:33:06;;;;;;;;;;;21.40;47.80;;;;;;5408603;26;2324;-77
2024/04/15 08:35:32;;;;;;;;;;;21.40;48.30;;;;;;5416523;26;1880;-78
2024/04/15 08:38:00;;;;;;;;;;;21.40;48.10;;;;;;5417105;26;1518;-77
2024/04/15 08:40:25;;;;;;;;;;;21.50;48.10;;;;;;5420374;26;1112;-78
2024/04/15 08:42:53;;;;;;;;;;;21.50;47.90;;;;;;5417278;26;1794;-77
2024/04/15 08:45:19;;;;;;;;;;;21.50;47.80;;;;;;5413385;26;1762;-77
2024/04/15 08:47:48;;;;;;;;;;;21.50;47.70;;;;;;5412907;26;2018;-78
2024/04/15 08:50:13;;;;;;;;;;;21.50;47.70;;;;;;5419747;26;2413;-79
2024/04/15 08:52:41;;;;;;;;;;;21.50;48.30;;;;;;5421044;26;1611;-79
2024/04/15 08:55:07;;;;;;;;;;;21.60;47.60;;;;;;5404526;26;1884;-77
2024/04/15 08:57:35;;;;;;;;;;;21.60;47.50;;;;;;5396377;26;2073;-77
2024/04/15 09:00:00;;;;;;;;;;;21.60;48.10;;;;;;5413060;26;1885;-78
2024/04/15 09:02:30;;;;;;;;;;;21.60;47.30;;;;;;5413545;26;1874;-77
2024/04/15 09:04:56;;;;;;;;;;;21.60;47.30;;;;;;5407020;26;1776;-77
2024/04/15 09:07:24;;;;;;;;;;;21.60;47.20;;;;;;5408014;26;1941;-77
2024/04/15 09:09:49;;;;;;;;;;;21.60;47.10;;;;;;5402019;26;3376;-78
2024/04/15 09:12:17;;;;;;;;;;;21.70;47.30;;;;;;5401570;26;1835;-78
2024/04/15 09:14:43;;;;;;;;;;;21.70;47.20;;;;;;5408996;26;1694;-77
2024/04/15 09:17:11;;;;;;;;;;;21.70;47.10;;;;;;5413219;26;1796;-78
2024/04/15 09:19:37;;;;;;;;;;;21.70;47.00;;;;;;5412771;26;2861;-77
2024/04/15 09:22:05;;;;;;;;;;;21.70;47.00;;;;;;5411772;26;3000;-77
2024/04/15 09:24:30;;;;;;;;;;;21.70;46.90;;;;;;5414396;26;1847;-76
2024/04/15 09:26:58;;;;;;;;;;;21.80;46.90;;;;;;5399539;26;1802;-77
2024/04/15 09:29:24;;;;;;;;;;;21.80;46.70;;;;;;5411864;26;2007;-78
2024/04/15 09:31:52;;;;;;;;;;;21.90;46.70;;;;;;5407506;26;1588;-77
2024/04/15 09:34:17;;;;;;;;;;;21.90;46.50;;;;;;5399112;26;1851;-78
2024/04/15 09:36:45;;;;;;;;;;;22.00;46.40;;;;;;5410938;26;1524;-78
2024/04/15 09:39:12;;;;;;;;;;;22.10;46.20;;;;;;5405792;26;1819;-77
2024/04/15 09:41:41;;;;;;;;;;;22.20;45.90;;;;;;5411701;26;1833;-78
2024/04/15 09:44:06;;;;;;;;;;;22.20;45.90;;;;;;5411489;26;1747;-78
2024/04/15 09:46:34;;;;;;;;;;;22.30;45.80;;;;;;5410808;26;1728;-78
2024/04/15 09:49:00;;;;;;;;;;;22.30;45.80;;;;;;5405140;26;1876;-77
2024/04/15 09:51:28;;;;;;;;;;;22.20;45.70;;;;;;5394632;26;1899;-78
2024/04/15 09:53:53;;;;;;;;;;;22.20;45.70;;;;;;5410035;26;1800;-79
2024/04/15 09:56:21;;;;;;;;;;;22.20;45.80;;;;;;5415361;26;1892;-78
2024/04/15 09:58:47;;;;;;;;;;;22.20;45.80;;;;;;5404711;26;1814;-80
2024/04/15 10:01:15;;;;;;;;;;;22.10;45.80;;;;;;5411493;26;1801;-80
2024/04/15 10:03:41;;;;;;;;;;;22.10;45.80;;;;;;5413614;26;1742;-80
2024/04/15 10:06:09;;;;;;;;;;;22.10;45.70;;;;;;5419582;26;1915;-79
2024/04/15 10:08:34;;;;;;;;;;;22.10;45.80;;;;;;5417035;26;1884;-79
2024/04/15 10:11:02;;;;;;;;;;;22.10;46.00;;;;;;5412274;26;2083;-78
2024/04/15 10:13:28;;;;;;;;;;;22.10;47.00;;;;;;5407987;26;2048;-79
2024/04/15 10:15:56;;;;;;;;;;;22.10;47.40;;;;;;5417254;26;1715;-79
2024/04/15 10:18:22;;;;;;;;;;;22.20;47.40;;;;;;5410241;26;1920;-78
2024/04/15 10:20:50;;;;;;;;;;;22.20;47.60;;;;;;5411909;26;2646;-77
2024/04/15 10:23:16;;;;;;;;;;;22.20;47.80;;;;;;5408562;26;3110;-77
2024/04/15 10:25:44;;;;;;;;;;;22.20;48.20;;;;;;5412179;26;1892;-78
2024/04/15 10:28:09;;;;;;;;;;;22.20;48.20;;;;;;5405767;26;1773;-78
2024/04/15 10:30:37;;;;;;;;;;;22.30;48.10;;;;;;5398621;26;1914;-77
2024/04/15 10:33:03;;;;;;;;;;;22.30;48.00;;;;;;5410657;26;1938;-77
2024/04/15 10:35:31;;;;;;;;;;;22.40;47.70;;;;;;5413754;26;1786;-77
2024/04/15 10:37:56;;;;;;;;;;;22.40;47.60;;;;;;5413111;26;1699;-77
2024/04/15 10:40:24;;;;;;;;;;;22.00;45.10;;;;;;5411871;26;2114;-78
2024/04/15 10:42:50;;;;;;;;;;;21.20;45.40;;;;;;5412592;26;1702;-78
2024/04/15 10:45:19;;;;;;;;;;;20.90;45.90;;;;;;5405752;26;1876;-78
2024/04/15 10:47:45;;;;;;;;;;;21.00;46.30;;;;;;5410899;26;1757;-77
2024/04/15 10:50:13;;;;;;;;;;;20.80;45.70;;;;;;5404845;26;1922;-77
2024/04/15 10:52:38;;;;;;;;;;;20.80;46.10;;;;;;5404278;26;1949;-77
2024/04/15 10:55:06;;;;;;;;;;;21.20;45.90;;;;;;5415980;26;1973;-77
2024/04/15 10:57:32;;;;;;;;;;;21.50;45.60;;;;;;5414199;26;1865;-78
2024/04/15 11:00:00;;;;;;;;;;;21.70;45.00;;;;;;5406653;26;1682;-78
2024/04/15 11:02:25;;;;;;;;;;;21.90;44.80;;;;;;5417725;26;1456;-78
2024/04/15 11:04:53;;;;;;;;;;;22.00;44.70;;;;;;5410779;26;1709;-78
2024/04/15 11:07:19;;;;;;;;;;;22.10;44.70;;;;;;5405826;26;1874;-78
2024/04/15 11:09:47;;;;;;;;;;;22.10;44.70;;;;;;5411252;26;1834;-78
2024/04/15 11:12:13;;;;;;;;;;;22.10;44.60;;;;;;5415170;26;1910;-79
2024/04/15 11:14:41;;;;;;;;;;;22.10;44.60;;;;;;5410180;26;1787;-79
2024/04/15 11:17:06;;;;;;;;;;;22.20;44.60;;;;;;5411634;26;1779;-78
2024/04/15 11:19:34;;;;;;;;;;;22.20;44.40;;;;;;5418110;26;1790;-78
2024/04/15 11:22:00;;;;;;;;;;;22.30;44.50;;;;;;5407984;26;3140;-78
2024/04/15 11:24:28;;;;;;;;;;;22.40;44.40;;;;;;5412537;26;3166;-78
2024/04/15 11:26:53;;;;;;;;;;;22.50;44.30;;;;;;5403829;26;1918;-78
2024/04/15 11:29:21;;;;;;;;;;;22.50;44.20;;;;;;5411988;26;2181;-79
2024/04/15 11:31:47;;;;;;;;;;;22.60;44.00;;;;;;5417965;26;1946;-77
2024/04/15 11:34:15;;;;;;;;;;;22.80;43.90;;;;;;5414462;26;1795;-78
2024/04/15 11:36:40;;;;;;;;;;;23.00;43.60;;;;;;5417016;26;1869;-78
2024/04/15 11:39:08;;;;;;;;;;;23.00;43.50;;;;;;5417026;26;2058;-79
2024/04/15 11:41:34;;;;;;;;;;;22.90;43.70;;;;;;5422657;26;1442;-78
2024/04/15 11:44:02;;;;;;;;;;;22.90;43.80;;;;;;5420057;26;1854;-78
2024/04/15 11:46:28;;;;;;;;;;;22.90;43.80;;;;;;5400146;26;1917;-79
2024/04/15 11:48:56;;;;;;;;;;;22.80;43.80;;;;;;5425471;26;2114;-79
2024/04/15 11:51:21;;;;;;;;;;;22.70;43.90;;;;;;5417016;26;1554;-78
2024/04/15 11:53:49;;;;;;;;;;;22.70;44.10;;;;;;5414157;26;1804;-78
2024/04/15 11:56:15;;;;;;;;;;;22.60;44.10;;;;;;5416212;26;2159;-78
2024/04/15 11:58:43;;;;;;;;;;;22.60;44.40;;;;;;5415338;26;1530;-77
2024/04/15 12:01:08;;;;;;;;;;;22.60;44.40;;;;;;5399055;26;1728;-78
2024/04/15 12:03:36;;;;;;;;;;;22.50;44.40;;;;;;5422753;26;1439;-78
2024/04/15 12:06:02;;;;;;;;;;;22.50;44.50;;;;;;5398734;26;1791;-79
2024/04/15 12:08:30;;;;;;;;;;;22.50;44.60;;;;;;5390317;26;1880;-79
2024/04/15 12:10:55;;;;;;;;;;;22.50;44.70;;;;;;5391090;26;2078;-78
2024/04/15 12:13:23;;;;;;;;;;;22.50;44.70;;;;;;5390782;26;2163;-79
2024/04/15 12:15:49;;;;;;;;;;;22.50;44.80;;;;;;5387349;26;1832;-79
2024/04/15 12:18:17;;;;;;;;;;;22.50;44.80;;;;;;5384177;26;1577;-77
2024/04/15 12:20:42;;;;;;;;;;;22.50;44.80;;;;;;5380980;26;1937;-78
2024/04/15 12:23:10;;;;;;;;;;;22.50;44.80;;;;;;5380819;26;3283;-78
2024/04/15 12:25:36;;;;;;;;;;;22.60;44.70;;;;;;5375406;26;3007;-78
2024/04/15 12:28:04;;;;;;;;;;;22.60;44.80;;;;;;5382218;26;1892;-78
2024/04/15 12:30:29;;;;;;;;;;;22.60;44.90;;;;;;5375933;26;1843;-77
2024/04/15 12:32:58;;;;;;;;;;;22.60;45.00;;;;;;5380921;26;1913;-79
2024/04/15 12:35:24;;;;;;;;;;;22.60;44.90;;;;;;5374489;26;1887;-78
2024/04/15 12:37:52;;;;;;;;;;;22.60;45.00;;;;;;5381208;26;1565;-79
2024/04/15 12:40:17;;;;;;;;;;;22.60;45.10;;;;;;5380242;26;1905;-78
2024/04/15 12:42:45;;;;;;;;;;;22.60;45.10;;;;;;5382193;26;1545;-78
2024/04/15 12:45:11;;;;;;;;;;;22.60;45.20;;;;;;5379980;26;1834;-77
2024/04/15 12:47:39;;;;;;;;;;;22.50;45.10;;;;;;5371505;26;1976;-77
2024/04/15 12:50:05;;;;;;;;;;;22.50;45.20;;;;;;5377293;26;1876;-78
2024/04/15 12:52:33;;;;;;;;;;;22.50;45.30;;;;;;5382412;26;1455;-78
2024/04/15 12:54:59;;;;;;;;;;;22.50;45.30;;;;;;5382883;26;2133;-78
2024/04/15 12:57:28;;;;;;;;;;;22.50;45.40;;;;;;5380452;26;2152;-79
2024/04/15 12:59:54;;;;;;;;;;;22.50;45.40;;;;;;5379650;26;1984;-78
2024/04/15 13:02:22;;;;;;;;;;;22.50;45.50;;;;;;5381163;26;1791;-78
2024/04/15 13:04:47;;;;;;;;;;;22.40;45.40;;;;;;5374064;26;1837;-78
2024/04/15 13:07:15;;;;;;;;;;;22.40;45.40;;;;;;5399735;26;2097;-78
2024/04/15 13:09:41;;;;;;;;;;;22.40;45.40;;;;;;5403654;26;2019;-79
2024/04/15 13:12:10;;;;;;;;;;;22.50;45.50;;;;;;5407668;26;2047;-79
2024/04/15 13:14:35;;;;;;;;;;;22.50;45.50;;;;;;5413407;26;1808;-79
2024/04/15 13:17:03;;;;;;;;;;;22.50;45.50;;;;;;5413742;26;1957;-78
2024/04/15 13:19:29;;;;;;;;;;;22.40;45.50;;;;;;5416291;26;1843;-79
2024/04/15 13:21:57;;;;;;;;;;;22.40;45.50;;;;;;5410089;26;1904;-78
2024/04/15 13:24:22;;;;;;;;;;;22.40;45.60;;;;;;5410083;26;3164;-78
2024/04/15 13:26:51;;;;;;;;;;;22.50;45.70;;;;;;5412584;26;3157;-78
2024/04/15 13:29:16;;;;;;;;;;;22.50;45.80;;;;;;5415656;26;1875;-78
2024/04/15 13:31:44;;;;;;;;;;;22.50;45.80;;;;;;5414043;26;1851;-78
2024/04/15 13:34:10;;;;;;;;;;;22.60;45.70;;;;;;5416402;26;1813;-78
2024/04/15 13:36:38;;;;;;;;;;;22.70;45.60;;;;;;5411668;26;1942;-79
2024/04/15 13:39:03;;;;;;;;;;;22.70;45.60;;;;;;5411056;26;1744;-77
2024/04/15 13:41:31;;;;;;;;;;;22.70;45.60;;;;;;5415702;26;1730;-78
2024/04/15 13:43:57;;;;;;;;;;;22.70;45.80;;;;;;5408944;26;1766;-78
2024/04/15 13:46:25;;;;;;;;;;;22.70;45.80;;;;;;5409945;26;2256;-78
2024/04/15 13:48:50;;;;;;;;;;;22.70;45.90;;;;;;5415261;26;1916;-79
2024/04/15 13:51:18;;;;;;;;;;;22.70;46.00;;;;;;5415365;26;1918;-78
2024/04/15 13:53:44;;;;;;;;;;;22.60;46.10;;;;;;5415395;26;1854;-78
2024/04/15 13:56:12;;;;;;;;;;;22.60;46.10;;;;;;5414978;26;1905;-79
2024/04/15 13:58:38;;;;;;;;;;;22.70;46.10;;;;;;5392987;26;1792;-78
2024/04/15 14:01:07;;;;;;;;;;;22.70;46.00;;;;;;5407946;26;1815;-78
2024/04/15 14:03:32;;;;;;;;;;;22.70;46.00;;;;;;5407105;26;1754;-77
2024/04/15 14:06:00;;;;;;;;;;;22.40;47.10;;;;;;5414046;26;1919;-79
2024/04/15 14:08:25;;;;;;;;;;;22.20;47.40;;;;;;5406924;26;1784;-78
2024/04/15 14:10:53;;;;;;;;;;;22.30;47.20;;;;;;5410477;26;2483;-78
2024/04/15 14:13:19;;;;;;;;;;;22.50;46.90;;;;;;5410461;26;2181;-77
2024/04/15 14:15:47;;;;;;;;;;;22.70;46.80;;;;;;5415025;26;1891;-77
2024/04/15 14:18:13;;;;;;;;;;;22.80;46.70;;;;;;5410774;26;1813;-78
2024/04/15 14:20:41;;;;;;;;;;;22.90;46.60;;;;;;5412888;26;1915;-78
2024/04/15 14:23:06;;;;;;;;;;;22.90;46.50;;;;;;5406986;26;1734;-77
2024/04/15 14:25:34;;;;;;;;;;;22.90;46.50;;;;;;5411236;26;3399;-78
2024/04/15 14:28:00;;;;;;;;;;;23.00;46.60;;;;;;5409587;26;3213;-78